PWSweather.com
Personal Weather Stations
Station Observations
TENMILE2
Watts Bar Lake, Ten Mile, TN 37880

Watts Bar LakeTen Mile, TN 37880

Lat: 35.686, Lon: -84.7068

Elevation: 767

Station Type: Davis Vue

http://www.wattsbarweather.org

High Low Average
Temperature 46.4°F8.0°C 40.3°F4.6°C 43.3°F6.3°C
Dew Point 45.3°F7.4°C 23.2°F-4.9°C 36.1°F2.3°C
Winds 9.5 mph 15.3 kmh Calm Calm 3.0 mph SSE4.8 kmh SSE
Wind Gusts 24.0 mph38.6 kmh -- 9.0 mph14.5 kmh
Humidity 96% 44% 78%
Pressure 30.43 in1030.5 mb 30.06 in1017.9 mb -
Precipitation 0.46 in11.7 mm - -
Hour Temp Dew Point Humidity Winds Wind Gusts Pressure Precip Precip Rate Daily Precip Total
12:01 AM 40.3°F4.6°C 29.2°F-1.6°C 64% Calm Calm 1.5 mph2.4 kmh 30.43 in1030.5 mb 0.00 in0.0 mm 0.00 in0.0 mm 0.00 in0.0 mm
12:06 AM 40.4°F4.7°C 28.5°F-1.9°C 62% Calm Calm 1.5 mph2.4 kmh 30.43 in1030.5 mb 0.00 in0.0 mm 0.00 in0.0 mm 0.00 in0.0 mm
12:11 AM 40.7°F4.8°C 27.5°F-2.5°C 59% 1.3 mph E2.1 kmh E 1.5 mph2.4 kmh 30.42 in1030.1 mb 0.00 in0.0 mm 0.00 in0.0 mm 0.00 in0.0 mm
12:16 AM 40.9°F4.9°C 29.3°F-1.5°C 63% 2.2 mph ENE3.5 kmh ENE 3.0 mph4.8 kmh 30.42 in1030.1 mb 0.00 in0.0 mm 0.00 in0.0 mm 0.00 in0.0 mm
12:21 AM 40.8°F4.9°C 28.0°F-2.2°C 60% 1.3 mph E2.1 kmh E 3.0 mph4.8 kmh 30.42 in1030.1 mb 0.00 in0.0 mm 0.00 in0.0 mm 0.00 in0.0 mm
12:26 AM 40.9°F4.9°C 29.3°F-1.5°C 63% Calm Calm 3.0 mph4.8 kmh 30.42 in1030.1 mb 0.00 in0.0 mm 0.00 in0.0 mm 0.00 in0.0 mm
12:31 AM 40.9°F4.9°C 28.6°F-1.9°C 61% 1.4 mph ENE2.3 kmh ENE 3.0 mph4.8 kmh 30.41 in1029.8 mb 0.00 in0.0 mm 0.00 in0.0 mm 0.00 in0.0 mm
12:36 AM 40.9°F4.9°C 29.7°F-1.3°C 64% Calm Calm 3.0 mph4.8 kmh 30.41 in1029.8 mb 0.00 in0.0 mm 0.00 in0.0 mm 0.00 in0.0 mm
12:41 AM 40.8°F4.9°C 28.9°F-1.7°C 62% 1.3 mph SE2.1 kmh SE 3.0 mph4.8 kmh 30.41 in1029.8 mb 0.00 in0.0 mm 0.00 in0.0 mm 0.00 in0.0 mm
12:46 AM 40.8°F4.9°C 28.9°F-1.7°C 62% 1.4 mph NE2.3 kmh NE 3.0 mph4.8 kmh 30.41 in1029.8 mb 0.00 in0.0 mm 0.00 in0.0 mm 0.00 in0.0 mm
12:51 AM 40.9°F4.9°C 29.7°F-1.3°C 64% Calm Calm 3.0 mph4.8 kmh 30.41 in1029.8 mb 0.00 in0.0 mm 0.00 in0.0 mm 0.00 in0.0 mm
12:56 AM 40.8°F4.9°C 29.6°F-1.3°C 64% Calm Calm 3.0 mph4.8 kmh 30.41 in1029.8 mb 0.00 in0.0 mm 0.00 in0.0 mm 0.00 in0.0 mm
01:01 AM 40.8°F4.9°C 29.6°F-1.3°C 64% 1.4 mph NE2.3 kmh NE 3.0 mph4.8 kmh 30.41 in1029.8 mb 0.00 in0.0 mm 0.00 in0.0 mm 0.00 in0.0 mm
01:06 AM 40.9°F4.9°C 30.1°F-1.1°C 65% Calm Calm 3.0 mph4.8 kmh 30.41 in1029.8 mb 0.00 in0.0 mm 0.00 in0.0 mm 0.00 in0.0 mm
01:11 AM 40.8°F4.9°C 29.6°F-1.3°C 64% Calm Calm 3.0 mph4.8 kmh 30.40 in1029.5 mb 0.00 in0.0 mm 0.00 in0.0 mm 0.00 in0.0 mm
01:16 AM 40.9°F4.9°C 29.3°F-1.5°C 63% 1.3 mph E2.1 kmh E 3.0 mph4.8 kmh 30.40 in1029.5 mb 0.00 in0.0 mm 0.00 in0.0 mm 0.00 in0.0 mm
01:21 AM 41.1°F5.1°C 29.5°F-1.4°C 63% Calm Calm 1.5 mph2.4 kmh 30.40 in1029.5 mb 0.00 in0.0 mm 0.00 in0.0 mm 0.00 in0.0 mm
01:26 AM 41.1°F5.1°C 29.9°F-1.2°C 64% Calm Calm 1.5 mph2.4 kmh 30.40 in1029.5 mb 0.00 in0.0 mm 0.00 in0.0 mm 0.00 in0.0 mm
01:31 AM 41.1°F5.1°C 29.9°F-1.2°C 64% 1.3 mph E2.1 kmh E 1.5 mph2.4 kmh 30.40 in1029.5 mb 0.00 in0.0 mm 0.00 in0.0 mm 0.00 in0.0 mm
01:36 AM 41.0°F5.0°C 30.2°F-1.0°C 65% 1.3 mph E2.1 kmh E 1.5 mph2.4 kmh 30.40 in1029.5 mb 0.00 in0.0 mm 0.00 in0.0 mm 0.00 in0.0 mm
01:41 AM 40.9°F4.9°C 28.6°F-1.9°C 61% 1.3 mph E2.1 kmh E 1.5 mph2.4 kmh 30.40 in1029.5 mb 0.00 in0.0 mm 0.00 in0.0 mm 0.00 in0.0 mm
01:46 AM 40.9°F4.9°C 30.1°F-1.1°C 65% 1.3 mph E2.1 kmh E 1.5 mph2.4 kmh 30.39 in1029.1 mb 0.00 in0.0 mm 0.00 in0.0 mm 0.00 in0.0 mm
01:51 AM 41.0°F5.0°C 28.6°F-1.9°C 61% 1.6 mph ESE2.6 kmh ESE 6.0 mph9.7 kmh 30.39 in1029.1 mb 0.00 in0.0 mm 0.00 in0.0 mm 0.00 in0.0 mm
01:56 AM 41.1°F5.1°C 27.5°F-2.5°C 58% 2.7 mph SSE4.3 kmh SSE 6.0 mph9.7 kmh 30.39 in1029.1 mb 0.00 in0.0 mm 0.00 in0.0 mm 0.00 in0.0 mm
02:01 AM 41.5°F5.3°C 26.5°F-3.1°C 55% 3.1 mph S5.0 kmh S 12.0 mph19.3 kmh 30.39 in1029.1 mb 0.00 in0.0 mm 0.00 in0.0 mm 0.00 in0.0 mm
02:06 AM 42.0°F5.6°C 25.1°F-3.8°C 51% 3.2 mph SSE5.1 kmh SSE 12.0 mph19.3 kmh 30.39 in1029.1 mb 0.00 in0.0 mm 0.00 in0.0 mm 0.00 in0.0 mm
02:11 AM 42.3°F5.7°C 26.8°F-2.9°C 54% 2.9 mph SSE4.7 kmh SSE 12.0 mph19.3 kmh 30.38 in1028.8 mb 0.00 in0.0 mm 0.00 in0.0 mm 0.00 in0.0 mm
02:16 AM 42.3°F5.7°C 25.9°F-3.4°C 52% 2.2 mph S3.5 kmh S 12.0 mph19.3 kmh 30.38 in1028.8 mb 0.00 in0.0 mm 0.00 in0.0 mm 0.00 in0.0 mm
02:21 AM 42.7°F5.9°C 26.3°F-3.2°C 52% 1.5 mph SSE2.4 kmh SSE 7.5 mph12.1 kmh 30.38 in1028.8 mb 0.00 in0.0 mm 0.00 in0.0 mm 0.00 in0.0 mm
02:26 AM 42.7°F5.9°C 27.7°F-2.4°C 55% 1.5 mph SSE2.4 kmh SSE 6.0 mph9.7 kmh 30.38 in1028.8 mb 0.00 in0.0 mm 0.00 in0.0 mm 0.00 in0.0 mm
02:31 AM 42.7°F5.9°C 27.2°F-2.7°C 54% 1.3 mph SE2.1 kmh SE 6.0 mph9.7 kmh 30.38 in1028.8 mb 0.00 in0.0 mm 0.00 in0.0 mm 0.00 in0.0 mm
02:36 AM 42.7°F5.9°C 25.8°F-3.4°C 51% 1.3 mph SE2.1 kmh SE 6.0 mph9.7 kmh 30.37 in1028.4 mb 0.00 in0.0 mm 0.00 in0.0 mm 0.00 in0.0 mm
02:41 AM 43.0°F6.1°C 24.6°F-4.1°C 48% 5.2 mph S8.4 kmh S 12.0 mph19.3 kmh 30.38 in1028.8 mb 0.00 in0.0 mm 0.00 in0.0 mm 0.00 in0.0 mm
02:46 AM 43.2°F6.2°C 26.7°F-2.9°C 52% 1.3 mph SSW2.1 kmh SSW 12.0 mph19.3 kmh 30.37 in1028.4 mb 0.00 in0.0 mm 0.00 in0.0 mm 0.00 in0.0 mm
02:51 AM 43.4°F6.3°C 23.9°F-4.5°C 46% 2.1 mph SSW3.4 kmh SSW 12.0 mph19.3 kmh 30.37 in1028.4 mb 0.00 in0.0 mm 0.00 in0.0 mm 0.00 in0.0 mm
02:56 AM 43.5°F6.4°C 24.0°F-4.4°C 46% 2.6 mph SE4.2 kmh SE 12.0 mph19.3 kmh 30.37 in1028.4 mb 0.00 in0.0 mm 0.00 in0.0 mm 0.00 in0.0 mm
03:01 AM 43.7°F6.5°C 24.2°F-4.3°C 46% 3.4 mph S5.5 kmh S 12.0 mph19.3 kmh 30.37 in1028.4 mb 0.00 in0.0 mm 0.00 in0.0 mm 0.00 in0.0 mm
03:06 AM 43.8°F6.6°C 25.3°F-3.7°C 48% 2.1 mph SE3.4 kmh SE 12.0 mph19.3 kmh 30.37 in1028.4 mb 0.00 in0.0 mm 0.00 in0.0 mm 0.00 in0.0 mm
03:11 AM 43.7°F6.5°C 24.2°F-4.3°C 46% 1.9 mph SSW3.1 kmh SSW 12.0 mph19.3 kmh 30.37 in1028.4 mb 0.00 in0.0 mm 0.00 in0.0 mm 0.00 in0.0 mm
03:16 AM 43.9°F6.6°C 23.2°F-4.9°C 44% 2.7 mph SSE4.3 kmh SSE 12.0 mph19.3 kmh 30.36 in1028.1 mb 0.00 in0.0 mm 0.00 in0.0 mm 0.00 in0.0 mm
03:21 AM 43.9°F6.6°C 23.2°F-4.9°C 44% 2.5 mph SSW4.0 kmh SSW 9.0 mph14.5 kmh 30.37 in1028.4 mb 0.00 in0.0 mm 0.00 in0.0 mm 0.00 in0.0 mm
03:26 AM 43.9°F6.6°C 24.3°F-4.3°C 46% 1.3 mph ENE2.1 kmh ENE 9.0 mph14.5 kmh 30.36 in1028.1 mb 0.00 in0.0 mm 0.00 in0.0 mm 0.00 in0.0 mm
03:31 AM 43.8°F6.6°C 24.2°F-4.3°C 46% 1.8 mph SSE2.9 kmh SSE 9.0 mph14.5 kmh 30.36 in1028.1 mb 0.00 in0.0 mm 0.00 in0.0 mm 0.00 in0.0 mm
03:36 AM 43.9°F6.6°C 24.3°F-4.3°C 46% 1.7 mph SE2.7 kmh SE 9.0 mph14.5 kmh 30.36 in1028.1 mb 0.00 in0.0 mm 0.00 in0.0 mm 0.00 in0.0 mm
03:41 AM 43.9°F6.6°C 23.8°F-4.6°C 45% 2.4 mph SSE3.9 kmh SSE 6.0 mph9.7 kmh 30.36 in1028.1 mb 0.00 in0.0 mm 0.00 in0.0 mm 0.00 in0.0 mm
03:46 AM 43.9°F6.6°C 23.8°F-4.6°C 45% 1.6 mph SSE2.6 kmh SSE 6.0 mph9.7 kmh 30.36 in1028.1 mb 0.00 in0.0 mm 0.00 in0.0 mm 0.00 in0.0 mm
03:51 AM 43.8°F6.6°C 23.7°F-4.6°C 45% 2.1 mph S3.4 kmh S 9.0 mph14.5 kmh 30.35 in1027.8 mb 0.00 in0.0 mm 0.00 in0.0 mm 0.00 in0.0 mm
03:56 AM 43.8°F6.6°C 24.8°F-4.0°C 47% 2.1 mph S3.4 kmh S 9.0 mph14.5 kmh 30.35 in1027.8 mb 0.00 in0.0 mm 0.00 in0.0 mm 0.00 in0.0 mm
04:01 AM 43.8°F6.6°C 23.7°F-4.6°C 45% 2.4 mph SSE3.9 kmh SSE 9.0 mph14.5 kmh 30.35 in1027.8 mb 0.00 in0.0 mm 0.00 in0.0 mm 0.00 in0.0 mm
04:06 AM 43.8°F6.6°C 24.2°F-4.3°C 46% 1.5 mph SW2.4 kmh SW 9.0 mph14.5 kmh 30.35 in1027.8 mb 0.00 in0.0 mm 0.00 in0.0 mm 0.00 in0.0 mm
04:11 AM 43.8°F6.6°C 24.2°F-4.3°C 46% 1.5 mph SW2.4 kmh SW 6.5 mph10.5 kmh 30.35 in1027.8 mb 0.00 in0.0 mm 0.00 in0.0 mm 0.00 in0.0 mm
04:16 AM 43.8°F6.6°C 24.8°F-4.0°C 47% 3.3 mph S5.3 kmh S 9.0 mph14.5 kmh 30.35 in1027.8 mb 0.00 in0.0 mm 0.00 in0.0 mm 0.00 in0.0 mm
04:21 AM 43.8°F6.6°C 24.8°F-4.0°C 47% 2.4 mph SW3.9 kmh SW 9.0 mph14.5 kmh 30.34 in1027.4 mb 0.00 in0.0 mm 0.00 in0.0 mm 0.00 in0.0 mm
04:27 AM 43.9°F6.6°C 24.3°F-4.3°C 46% 2.9 mph S4.7 kmh S 9.0 mph14.5 kmh 30.34 in1027.4 mb 0.00 in0.0 mm 0.00 in0.0 mm 0.00 in0.0 mm
04:32 AM 43.8°F6.6°C 24.8°F-4.0°C 47% 1.5 mph SSE2.4 kmh SSE 9.0 mph14.5 kmh 30.33 in1027.1 mb 0.00 in0.0 mm 0.00 in0.0 mm 0.00 in0.0 mm
04:37 AM 43.8°F6.6°C 24.8°F-4.0°C 47% 2.7 mph SSW4.3 kmh SSW 9.0 mph14.5 kmh 30.34 in1027.4 mb 0.00 in0.0 mm 0.00 in0.0 mm 0.00 in0.0 mm
04:42 AM 43.9°F6.6°C 24.9°F-3.9°C 47% 2.9 mph SSE4.7 kmh SSE 9.0 mph14.5 kmh 30.34 in1027.4 mb 0.00 in0.0 mm 0.00 in0.0 mm 0.00 in0.0 mm
04:47 AM 43.9°F6.6°C 25.4°F-3.7°C 48% 4.2 mph S6.8 kmh S 9.0 mph14.5 kmh 30.33 in1027.1 mb 0.00 in0.0 mm 0.00 in0.0 mm 0.00 in0.0 mm
04:52 AM 44.0°F6.7°C 25.5°F-3.6°C 48% 2.4 mph S3.9 kmh S 9.0 mph14.5 kmh 30.33 in1027.1 mb 0.00 in0.0 mm 0.00 in0.0 mm 0.00 in0.0 mm
04:57 AM 43.9°F6.6°C 24.9°F-3.9°C 47% 3.2 mph S5.1 kmh S 9.0 mph14.5 kmh 30.33 in1027.1 mb 0.00 in0.0 mm 0.00 in0.0 mm 0.00 in0.0 mm
05:02 AM 44.0°F6.7°C 25.0°F-3.9°C 47% 3.3 mph S5.3 kmh S 9.0 mph14.5 kmh 30.33 in1027.1 mb 0.00 in0.0 mm 0.00 in0.0 mm 0.00 in0.0 mm
05:07 AM 44.0°F6.7°C 25.0°F-3.9°C 47% 3.8 mph S6.1 kmh S 9.0 mph14.5 kmh 30.33 in1027.1 mb 0.00 in0.0 mm 0.00 in0.0 mm 0.00 in0.0 mm
05:12 AM 44.0°F6.7°C 25.5°F-3.6°C 48% 2.2 mph SSW3.5 kmh SSW 7.5 mph12.1 kmh 30.33 in1027.1 mb 0.00 in0.0 mm 0.00 in0.0 mm 0.00 in0.0 mm
05:17 AM 43.9°F6.6°C 25.4°F-3.7°C 48% 4.1 mph S6.6 kmh S 7.5 mph12.1 kmh 30.32 in1026.8 mb 0.00 in0.0 mm 0.00 in0.0 mm 0.00 in0.0 mm
05:22 AM 44.0°F6.7°C 25.5°F-3.6°C 48% 4.4 mph S7.1 kmh S 10.5 mph16.9 kmh 30.33 in1027.1 mb 0.00 in0.0 mm 0.00 in0.0 mm 0.00 in0.0 mm
05:27 AM 44.0°F6.7°C 25.5°F-3.6°C 48% 3.1 mph SE5.0 kmh SE 10.5 mph16.9 kmh 30.33 in1027.1 mb 0.00 in0.0 mm 0.00 in0.0 mm 0.00 in0.0 mm
05:32 AM 44.0°F6.7°C 26.0°F-3.3°C 49% 2.3 mph SSW3.7 kmh SSW 10.5 mph16.9 kmh 30.33 in1027.1 mb 0.00 in0.0 mm 0.00 in0.0 mm 0.00 in0.0 mm
05:37 AM 44.0°F6.7°C 25.5°F-3.6°C 48% 5.2 mph S8.4 kmh S 10.5 mph16.9 kmh 30.33 in1027.1 mb 0.00 in0.0 mm 0.00 in0.0 mm 0.00 in0.0 mm
05:42 AM 44.1°F6.7°C 25.6°F-3.6°C 48% 4.8 mph S7.7 kmh S 12.0 mph19.3 kmh 30.33 in1027.1 mb 0.00 in0.0 mm 0.00 in0.0 mm 0.00 in0.0 mm
05:47 AM 44.1°F6.7°C 26.1°F-3.3°C 49% 1.8 mph SSE2.9 kmh SSE 12.0 mph19.3 kmh 30.32 in1026.8 mb 0.00 in0.0 mm 0.00 in0.0 mm 0.00 in0.0 mm
05:52 AM 44.0°F6.7°C 26.5°F-3.1°C 50% 2.5 mph SSW4.0 kmh SSW 12.0 mph19.3 kmh 30.32 in1026.8 mb 0.00 in0.0 mm 0.00 in0.0 mm 0.00 in0.0 mm
05:57 AM 44.0°F6.7°C 27.5°F-2.5°C 52% 1.7 mph SSE2.7 kmh SSE 10.5 mph16.9 kmh 30.32 in1026.8 mb 0.00 in0.0 mm 0.00 in0.0 mm 0.00 in0.0 mm
06:02 AM 44.0°F6.7°C 26.0°F-3.3°C 49% 3.6 mph S5.8 kmh S 7.5 mph12.1 kmh 30.32 in1026.8 mb 0.00 in0.0 mm 0.00 in0.0 mm 0.00 in0.0 mm
06:07 AM 44.1°F6.7°C 26.6°F-3.0°C 50% 3.5 mph S5.6 kmh S 7.5 mph12.1 kmh 30.32 in1026.8 mb 0.00 in0.0 mm 0.00 in0.0 mm 0.00 in0.0 mm
06:12 AM 44.1°F6.7°C 27.1°F-2.7°C 51% 2.2 mph SSE3.5 kmh SSE 7.5 mph12.1 kmh 30.32 in1026.8 mb 0.00 in0.0 mm 0.00 in0.0 mm 0.00 in0.0 mm
06:17 AM 44.1°F6.7°C 27.1°F-2.7°C 51% 1.3 mph S2.1 kmh S 7.5 mph12.1 kmh 30.32 in1026.8 mb 0.00 in0.0 mm 0.00 in0.0 mm 0.00 in0.0 mm
06:22 AM 44.1°F6.7°C 27.1°F-2.7°C 51% 1.3 mph S2.1 kmh S 6.0 mph9.7 kmh 30.31 in1026.4 mb 0.00 in0.0 mm 0.00 in0.0 mm 0.00 in0.0 mm
06:27 AM 44.0°F6.7°C 27.0°F-2.8°C 51% 1.7 mph SSW2.7 kmh SSW 6.0 mph9.7 kmh 30.32 in1026.8 mb 0.00 in0.0 mm 0.00 in0.0 mm 0.00 in0.0 mm
06:32 AM 44.0°F6.7°C 27.5°F-2.5°C 52% 3.5 mph S5.6 kmh S 9.0 mph14.5 kmh 30.31 in1026.4 mb 0.00 in0.0 mm 0.00 in0.0 mm 0.00 in0.0 mm
06:37 AM 44.0°F6.7°C 27.5°F-2.5°C 52% 5.0 mph S8.0 kmh S 10.5 mph16.9 kmh 30.31 in1026.4 mb 0.00 in0.0 mm 0.00 in0.0 mm 0.00 in0.0 mm
06:42 AM 44.1°F6.7°C 27.6°F-2.4°C 52% 2.8 mph SSE4.5 kmh SSE 10.5 mph16.9 kmh 30.31 in1026.4 mb 0.00 in0.0 mm 0.00 in0.0 mm 0.00 in0.0 mm
06:47 AM 44.0°F6.7°C 28.0°F-2.2°C 53% 2.4 mph SSE3.9 kmh SSE 10.5 mph16.9 kmh 30.31 in1026.4 mb 0.00 in0.0 mm 0.00 in0.0 mm 0.00 in0.0 mm
06:52 AM 44.0°F6.7°C 28.0°F-2.2°C 53% 5.1 mph S8.2 kmh S 15.0 mph24.1 kmh 30.31 in1026.4 mb 0.00 in0.0 mm 0.00 in0.0 mm 0.00 in0.0 mm
06:57 AM 44.0°F6.7°C 28.0°F-2.2°C 53% 4.5 mph SSW7.2 kmh SSW 15.0 mph24.1 kmh 30.32 in1026.8 mb 0.00 in0.0 mm 0.00 in0.0 mm 0.00 in0.0 mm
07:02 AM 44.0°F6.7°C 28.4°F-2.0°C 54% 2.3 mph SSE3.7 kmh SSE 15.0 mph24.1 kmh 30.32 in1026.8 mb 0.00 in0.0 mm 0.00 in0.0 mm 0.00 in0.0 mm
07:07 AM 43.9°F6.6°C 29.2°F-1.6°C 56% 3.7 mph SSE6.0 kmh SSE 15.0 mph24.1 kmh 30.32 in1026.8 mb 0.00 in0.0 mm 0.00 in0.0 mm 0.00 in0.0 mm
07:12 AM 43.5°F6.4°C 31.0°F-0.6°C 61% 3.0 mph S4.8 kmh S 10.5 mph16.9 kmh 30.32 in1026.8 mb 0.00 in0.0 mm 0.00 in0.0 mm 0.00 in0.0 mm
07:17 AM 42.9°F6.1°C 31.3°F-0.4°C 63% 3.9 mph S6.3 kmh S 16.5 mph26.6 kmh 30.32 in1026.8 mb 0.00 in0.0 mm 0.00 in0.0 mm 0.00 in0.0 mm
07:22 AM 42.6°F5.9°C 31.4°F-0.3°C 64% 2.6 mph SSE4.2 kmh SSE 16.5 mph26.6 kmh 30.32 in1026.8 mb 0.00 in0.0 mm 0.00 in0.0 mm 0.00 in0.0 mm
07:27 AM 42.3°F5.7°C 31.8°F-0.1°C 66% 1.6 mph S2.6 kmh S 16.5 mph26.6 kmh 30.31 in1026.4 mb 0.00 in0.0 mm 0.00 in0.0 mm 0.00 in0.0 mm
07:32 AM 42.2°F5.7°C 32.1°F0.1°C 67% 2.4 mph SE3.9 kmh SE 16.5 mph26.6 kmh 30.31 in1026.4 mb 0.00 in0.0 mm 0.00 in0.0 mm 0.00 in0.0 mm
07:37 AM 42.1°F5.6°C 32.7°F0.4°C 69% 2.6 mph SE4.2 kmh SE 7.5 mph12.1 kmh 30.29 in1025.7 mb 0.00 in0.0 mm 0.00 in0.0 mm 0.00 in0.0 mm
07:42 AM 42.2°F5.7°C 31.7°F-0.2°C 66% 2.1 mph S3.4 kmh S 9.0 mph14.5 kmh 30.27 in1025.1 mb 0.00 in0.0 mm 0.00 in0.0 mm 0.00 in0.0 mm
07:47 AM 42.3°F5.7°C 31.8°F-0.1°C 66% 2.9 mph S4.7 kmh S 9.0 mph14.5 kmh 30.28 in1025.4 mb 0.00 in0.0 mm 0.00 in0.0 mm 0.00 in0.0 mm
07:52 AM 42.3°F5.7°C 31.8°F-0.1°C 66% 2.7 mph SSW4.3 kmh SSW 9.0 mph14.5 kmh 30.28 in1025.4 mb 0.00 in0.0 mm 0.00 in0.0 mm 0.00 in0.0 mm
07:57 AM 42.5°F5.8°C 32.0°F0.0°C 66% 1.3 mph W2.1 kmh W 9.0 mph14.5 kmh 30.28 in1025.4 mb 0.00 in0.0 mm 0.00 in0.0 mm 0.00 in0.0 mm
08:02 AM 42.5°F5.8°C 31.6°F-0.2°C 65% 1.3 mph S2.1 kmh S 7.5 mph12.1 kmh 30.29 in1025.7 mb 0.00 in0.0 mm 0.00 in0.0 mm 0.00 in0.0 mm
08:07 AM 42.7°F5.9°C 31.5°F-0.3°C 64% 3.1 mph SSW5.0 kmh SSW 9.0 mph14.5 kmh 30.28 in1025.4 mb 0.00 in0.0 mm 0.00 in0.0 mm 0.00 in0.0 mm
08:12 AM 42.9°F6.1°C 31.3°F-0.4°C 63% 3.5 mph S5.6 kmh S 9.0 mph14.5 kmh 30.28 in1025.4 mb 0.00 in0.0 mm 0.00 in0.0 mm 0.00 in0.0 mm
08:17 AM 43.1°F6.2°C 31.4°F-0.3°C 63% 2.6 mph S4.2 kmh S 10.5 mph16.9 kmh 30.28 in1025.4 mb 0.00 in0.0 mm 0.00 in0.0 mm 0.00 in0.0 mm
08:22 AM 43.2°F6.2°C 31.5°F-0.3°C 63% 2.6 mph SSE4.2 kmh SSE 12.0 mph19.3 kmh 30.27 in1025.1 mb 0.00 in0.0 mm 0.00 in0.0 mm 0.00 in0.0 mm
08:27 AM 43.3°F6.3°C 30.8°F-0.7°C 61% 3.2 mph S5.1 kmh S 12.0 mph19.3 kmh 30.27 in1025.1 mb 0.00 in0.0 mm 0.00 in0.0 mm 0.00 in0.0 mm
08:32 AM 43.5°F6.4°C 31.4°F-0.3°C 62% 2.4 mph S3.9 kmh S 12.0 mph19.3 kmh 30.27 in1025.1 mb 0.00 in0.0 mm 0.00 in0.0 mm 0.00 in0.0 mm
08:37 AM 43.6°F6.4°C 31.5°F-0.3°C 62% 1.6 mph SSW2.6 kmh SSW 12.0 mph19.3 kmh 30.27 in1025.1 mb 0.00 in0.0 mm 0.00 in0.0 mm 0.00 in0.0 mm
08:42 AM 43.6°F6.4°C 32.3°F0.2°C 64% 2.0 mph S3.2 kmh S 7.5 mph12.1 kmh 30.27 in1025.1 mb 0.00 in0.0 mm 0.00 in0.0 mm 0.00 in0.0 mm
08:47 AM 43.7°F6.5°C 31.6°F-0.2°C 62% 3.1 mph S5.0 kmh S 7.5 mph12.1 kmh 30.28 in1025.4 mb 0.00 in0.0 mm 0.00 in0.0 mm 0.00 in0.0 mm
08:52 AM 43.7°F6.5°C 31.6°F-0.2°C 62% Calm Calm 7.5 mph12.1 kmh 30.26 in1024.7 mb 0.00 in0.0 mm 0.00 in0.0 mm 0.00 in0.0 mm
08:57 AM 43.7°F6.5°C 31.6°F-0.2°C 62% 3.2 mph S5.1 kmh S 7.5 mph12.1 kmh 30.27 in1025.1 mb 0.00 in0.0 mm 0.00 in0.0 mm 0.00 in0.0 mm
09:03 AM 43.8°F6.6°C 32.9°F0.5°C 65% 1.6 mph SE2.6 kmh SE 9.0 mph14.5 kmh 30.26 in1024.7 mb 0.00 in0.0 mm 0.00 in0.0 mm 0.00 in0.0 mm
09:08 AM 43.8°F6.6°C 31.7°F-0.2°C 62% 4.8 mph S7.7 kmh S 9.0 mph14.5 kmh 30.27 in1025.1 mb 0.00 in0.0 mm 0.00 in0.0 mm 0.00 in0.0 mm
09:13 AM 43.9°F6.6°C 31.8°F-0.1°C 62% 2.1 mph S3.4 kmh S 9.0 mph14.5 kmh 30.26 in1024.7 mb 0.00 in0.0 mm 0.00 in0.0 mm 0.00 in0.0 mm
09:18 AM 44.0°F6.7°C 32.7°F0.4°C 64% 1.3 mph SSW2.1 kmh SSW 9.0 mph14.5 kmh 30.26 in1024.7 mb 0.00 in0.0 mm 0.00 in0.0 mm 0.00 in0.0 mm
09:23 AM 44.0°F6.7°C 32.7°F0.4°C 64% 1.6 mph SE2.6 kmh SE 9.0 mph14.5 kmh 30.27 in1025.1 mb 0.00 in0.0 mm 0.00 in0.0 mm 0.00 in0.0 mm
09:28 AM 44.1°F6.7°C 33.6°F0.9°C 66% 1.3 mph ESE2.1 kmh ESE 6.0 mph9.7 kmh 30.25 in1024.4 mb 0.00 in0.0 mm 0.00 in0.0 mm 0.00 in0.0 mm
09:33 AM 44.1°F6.7°C 32.8°F0.4°C 64% 2.3 mph SSW3.7 kmh SSW 6.0 mph9.7 kmh 30.25 in1024.4 mb 0.00 in0.0 mm 0.00 in0.0 mm 0.00 in0.0 mm
09:38 AM 44.3°F6.8°C 33.0°F0.6°C 64% 4.1 mph S6.6 kmh S 10.5 mph16.9 kmh 30.25 in1024.4 mb 0.00 in0.0 mm 0.00 in0.0 mm 0.00 in0.0 mm
09:43 AM 44.4°F6.9°C 33.5°F0.8°C 65% 2.7 mph S4.3 kmh S 10.5 mph16.9 kmh 30.25 in1024.4 mb 0.00 in0.0 mm 0.00 in0.0 mm 0.00 in0.0 mm
09:48 AM 44.5°F6.9°C 33.9°F1.1°C 66% 2.7 mph S4.3 kmh S 10.5 mph16.9 kmh 30.25 in1024.4 mb 0.00 in0.0 mm 0.00 in0.0 mm 0.00 in0.0 mm
09:53 AM 44.6°F7.0°C 34.4°F1.3°C 67% 3.0 mph S4.8 kmh S 10.5 mph16.9 kmh 30.25 in1024.4 mb 0.00 in0.0 mm 0.00 in0.0 mm 0.00 in0.0 mm
09:58 AM 44.4°F6.9°C 36.0°F2.2°C 72% 1.7 mph S2.7 kmh S 7.5 mph12.1 kmh 30.25 in1024.4 mb 0.00 in0.0 mm 0.00 in0.0 mm 0.00 in0.0 mm
10:03 AM 43.8°F6.6°C 35.8°F2.1°C 73% 2.2 mph S3.5 kmh S 7.5 mph12.1 kmh 30.25 in1024.4 mb 0.01 in0.3 mm 0.01 in0.3 mm 0.01 in0.3 mm
10:08 AM 43.1°F6.2°C 37.1°F2.8°C 79% 1.3 mph ESE2.1 kmh ESE 7.5 mph12.1 kmh 30.25 in1024.4 mb 0.01 in0.3 mm 0.00 in0.0 mm 0.01 in0.3 mm
10:13 AM 42.7°F5.9°C 37.6°F3.1°C 82% 1.5 mph SSE2.4 kmh SSE 4.5 mph7.2 kmh 30.26 in1024.7 mb 0.01 in0.3 mm 0.00 in0.0 mm 0.01 in0.3 mm
10:18 AM 42.2°F5.7°C 37.7°F3.2°C 84% 2.3 mph ENE3.7 kmh ENE 6.0 mph9.7 kmh 30.25 in1024.4 mb 0.02 in0.5 mm 0.12 in3.0 mm 0.02 in0.5 mm
10:23 AM 41.8°F5.4°C 37.9°F3.3°C 86% Calm Calm 6.0 mph9.7 kmh 30.25 in1024.4 mb 0.03 in0.8 mm 0.12 in3.0 mm 0.03 in0.8 mm
10:28 AM 41.6°F5.3°C 38.3°F3.5°C 88% Calm Calm 4.5 mph7.2 kmh 30.25 in1024.4 mb 0.03 in0.8 mm 0.00 in0.0 mm 0.03 in0.8 mm
10:33 AM 41.4°F5.2°C 38.4°F3.6°C 89% 1.3 mph ESE2.1 kmh ESE 4.5 mph7.2 kmh 30.26 in1024.7 mb 0.04 in1.0 mm 0.12 in3.0 mm 0.04 in1.0 mm
10:38 AM 41.4°F5.2°C 38.4°F3.6°C 89% 1.5 mph SE2.4 kmh SE 6.0 mph9.7 kmh 30.26 in1024.7 mb 0.06 in1.5 mm 0.24 in6.1 mm 0.06 in1.5 mm
10:43 AM 41.5°F5.3°C 38.5°F3.6°C 89% 3.1 mph SSW5.0 kmh SSW 7.5 mph12.1 kmh 30.26 in1024.7 mb 0.07 in1.8 mm 0.12 in3.0 mm 0.07 in1.8 mm
10:48 AM 41.5°F5.3°C 38.7°F3.7°C 90% 2.8 mph S4.5 kmh S 7.5 mph12.1 kmh 30.26 in1024.7 mb 0.08 in2.0 mm 0.12 in3.0 mm 0.08 in2.0 mm
10:53 AM 41.6°F5.3°C 38.8°F3.8°C 90% 3.0 mph S4.8 kmh S 9.0 mph14.5 kmh 30.25 in1024.4 mb 0.09 in2.3 mm 0.12 in3.0 mm 0.09 in2.3 mm
10:58 AM 41.7°F5.4°C 38.9°F3.8°C 90% 3.3 mph S5.3 kmh S 12.0 mph19.3 kmh 30.25 in1024.4 mb 0.10 in2.5 mm 0.12 in3.0 mm 0.10 in2.5 mm
11:03 AM 41.8°F5.4°C 39.0°F3.9°C 90% 3.1 mph S5.0 kmh S 12.0 mph19.3 kmh 30.24 in1024.0 mb 0.11 in2.8 mm 0.01 in0.3 mm 0.12 in3.0 mm
11:08 AM 41.9°F5.5°C 39.1°F3.9°C 90% 5.9 mph S9.5 kmh S 18.0 mph29.0 kmh 30.24 in1024.0 mb 0.12 in3.0 mm 0.12 in3.0 mm 0.13 in3.3 mm
11:13 AM 41.9°F5.5°C 39.4°F4.1°C 91% 2.3 mph SW3.7 kmh SW 18.0 mph29.0 kmh 30.24 in1024.0 mb 0.13 in3.3 mm 0.12 in3.0 mm 0.14 in3.6 mm
11:18 AM 41.9°F5.5°C 39.4°F4.1°C 91% 3.3 mph S5.3 kmh S 18.0 mph29.0 kmh 30.24 in1024.0 mb 0.13 in3.3 mm 0.00 in0.0 mm 0.15 in3.8 mm
11:23 AM 41.8°F5.4°C 39.3°F4.1°C 91% 8.6 mph S13.8 kmh S 18.0 mph29.0 kmh 30.24 in1024.0 mb 0.13 in3.3 mm 0.00 in0.0 mm 0.17 in4.3 mm
11:28 AM 41.8°F5.4°C 39.3°F4.1°C 91% 6.9 mph S11.1 kmh S 21.0 mph33.8 kmh 30.24 in1024.0 mb 0.14 in3.6 mm 0.12 in3.0 mm 0.18 in4.6 mm
11:33 AM 41.8°F5.4°C 39.3°F4.1°C 91% 3.1 mph S5.0 kmh S 21.0 mph33.8 kmh 30.23 in1023.7 mb 0.14 in3.6 mm 0.00 in0.0 mm 0.19 in4.8 mm
11:38 AM 41.7°F5.4°C 39.2°F4.0°C 91% 5.3 mph S8.5 kmh S 21.0 mph33.8 kmh 30.24 in1024.0 mb 0.13 in3.3 mm 0.00 in0.0 mm 0.19 in4.8 mm
11:43 AM 41.7°F5.4°C 39.2°F4.0°C 91% 4.9 mph S7.9 kmh S 21.0 mph33.8 kmh 30.24 in1024.0 mb 0.13 in3.3 mm 0.00 in0.0 mm 0.20 in5.1 mm
11:48 AM 41.6°F5.3°C 39.4°F4.1°C 92% 5.3 mph S8.5 kmh S 15.0 mph24.1 kmh 30.23 in1023.7 mb 0.13 in3.3 mm 0.00 in0.0 mm 0.21 in5.3 mm
11:53 AM 41.4°F5.2°C 38.9°F3.8°C 91% 6.7 mph S10.8 kmh S 20.8 mph33.5 kmh 30.23 in1023.7 mb 0.12 in3.0 mm 0.00 in0.0 mm 0.21 in5.3 mm
11:58 AM 41.3°F5.2°C 38.8°F3.8°C 91% 7.4 mph S11.9 kmh S 24.0 mph38.6 kmh 30.23 in1023.7 mb 0.10 in2.5 mm 0.00 in0.0 mm 0.21 in5.3 mm
12:03 PM 41.2°F5.1°C 38.7°F3.7°C 91% 7.7 mph S12.4 kmh S 24.0 mph38.6 kmh 30.22 in1023.4 mb 0.09 in2.3 mm 0.00 in0.0 mm 0.21 in5.3 mm
12:08 PM 41.2°F5.1°C 38.7°F3.7°C 91% 6.1 mph S9.8 kmh S 24.0 mph38.6 kmh 30.22 in1023.4 mb 0.08 in2.0 mm 0.00 in0.0 mm 0.21 in5.3 mm
12:13 PM 41.2°F5.1°C 38.7°F3.7°C 91% 4.8 mph S7.7 kmh S 19.5 mph31.4 kmh 30.21 in1023.0 mb 0.07 in1.8 mm 0.00 in0.0 mm 0.21 in5.3 mm
12:18 PM 41.2°F5.1°C 39.0°F3.9°C 92% 7.1 mph SSW11.4 kmh SSW 19.5 mph31.4 kmh 30.20 in1022.7 mb 0.06 in1.5 mm 0.00 in0.0 mm 0.21 in5.3 mm
12:23 PM 41.2°F5.1°C 38.7°F3.7°C 91% 5.8 mph S9.3 kmh S 19.5 mph31.4 kmh 30.20 in1022.7 mb 0.04 in1.0 mm 0.00 in0.0 mm 0.21 in5.3 mm
12:28 PM 41.2°F5.1°C 38.7°F3.7°C 91% 4.7 mph SSE7.6 kmh SSE 19.5 mph31.4 kmh 30.19 in1022.4 mb 0.03 in0.8 mm 0.00 in0.0 mm 0.21 in5.3 mm
12:33 PM 41.4°F5.2°C 39.2°F4.0°C 92% 2.4 mph SSW3.9 kmh SSW 18.0 mph29.0 kmh 30.19 in1022.4 mb 0.03 in0.8 mm 0.00 in0.0 mm 0.22 in5.6 mm
12:38 PM 41.4°F5.2°C 39.2°F4.0°C 92% 5.8 mph S9.3 kmh S 15.0 mph24.1 kmh 30.20 in1022.7 mb 0.03 in0.8 mm 0.00 in0.0 mm 0.22 in5.6 mm
12:43 PM 41.5°F5.3°C 39.3°F4.1°C 92% 3.2 mph S5.1 kmh S 15.0 mph24.1 kmh 30.19 in1022.4 mb 0.02 in0.5 mm 0.00 in0.0 mm 0.22 in5.6 mm
12:48 PM 41.5°F5.3°C 39.3°F4.1°C 92% 3.9 mph S6.3 kmh S 15.0 mph24.1 kmh 30.17 in1021.7 mb 0.01 in0.3 mm 0.00 in0.0 mm 0.22 in5.6 mm
12:53 PM 41.5°F5.3°C 39.3°F4.1°C 92% 4.4 mph S7.1 kmh S 13.5 mph21.7 kmh 30.17 in1021.7 mb 0.02 in0.5 mm 0.12 in3.0 mm 0.23 in5.8 mm
12:58 PM 41.6°F5.3°C 39.4°F4.1°C 92% 7.6 mph S12.2 kmh S 15.0 mph24.1 kmh 30.17 in1021.7 mb 0.02 in0.5 mm 0.00 in0.0 mm 0.23 in5.8 mm
01:03 PM 41.8°F5.4°C 39.6°F4.2°C 92% 5.5 mph S8.9 kmh S 16.5 mph26.6 kmh 30.16 in1021.3 mb 0.02 in0.5 mm 0.00 in0.0 mm 0.23 in5.8 mm
01:08 PM 41.9°F5.5°C 39.7°F4.3°C 92% 4.8 mph SSE7.7 kmh SSE 16.5 mph26.6 kmh 30.16 in1021.3 mb 0.02 in0.5 mm 0.00 in0.0 mm 0.23 in5.8 mm
01:13 PM 42.0°F5.6°C 39.8°F4.3°C 92% 4.6 mph S7.4 kmh S 16.5 mph26.6 kmh 30.16 in1021.3 mb 0.02 in0.5 mm 0.00 in0.0 mm 0.23 in5.8 mm
01:18 PM 42.1°F5.6°C 39.9°F4.4°C 92% 2.6 mph S4.2 kmh S 15.0 mph24.1 kmh 30.15 in1021.0 mb 0.02 in0.5 mm 0.00 in0.0 mm 0.23 in5.8 mm
01:23 PM 42.1°F5.6°C 39.9°F4.4°C 92% 4.2 mph S6.8 kmh S 15.0 mph24.1 kmh 30.15 in1021.0 mb 0.03 in0.8 mm 0.12 in3.0 mm 0.24 in6.1 mm
01:28 PM 42.2°F5.7°C 40.0°F4.4°C 92% 4.1 mph SSE6.6 kmh SSE 15.0 mph24.1 kmh 30.15 in1021.0 mb 0.03 in0.8 mm 0.00 in0.0 mm 0.24 in6.1 mm
01:33 PM 42.2°F5.7°C 40.0°F4.4°C 92% 3.8 mph S6.1 kmh S 16.5 mph26.6 kmh 30.14 in1020.7 mb 0.03 in0.8 mm 0.00 in0.0 mm 0.25 in6.4 mm
01:38 PM 42.2°F5.7°C 40.0°F4.4°C 92% 3.0 mph S4.8 kmh S 16.5 mph26.6 kmh 30.14 in1020.7 mb 0.03 in0.8 mm 0.00 in0.0 mm 0.25 in6.4 mm
01:44 PM 42.1°F5.6°C 40.2°F4.6°C 93% 5.3 mph S8.5 kmh S 16.5 mph26.6 kmh 30.13 in1020.3 mb 0.04 in1.0 mm 0.10 in2.5 mm 0.26 in6.6 mm
01:49 PM 42.2°F5.7°C 40.3°F4.6°C 93% 7.0 mph S11.3 kmh S 16.5 mph26.6 kmh 30.13 in1020.3 mb 0.04 in1.0 mm 0.00 in0.0 mm 0.28 in7.1 mm
01:54 PM 42.2°F5.7°C 40.3°F4.6°C 93% 5.9 mph S9.5 kmh S 16.5 mph26.6 kmh 30.14 in1020.7 mb 0.04 in1.0 mm 0.00 in0.0 mm 0.28 in7.1 mm
01:59 PM 42.3°F5.7°C 40.4°F4.7°C 93% 2.9 mph S4.7 kmh S 16.5 mph26.6 kmh 30.14 in1020.7 mb 0.06 in1.5 mm 0.24 in6.1 mm 0.29 in7.4 mm
02:04 PM 42.4°F5.8°C 40.5°F4.7°C 93% 6.8 mph S10.9 kmh S 16.5 mph26.6 kmh 30.14 in1020.7 mb 0.06 in1.5 mm 0.00 in0.0 mm 0.29 in7.4 mm
02:09 PM 42.5°F5.8°C 40.6°F4.8°C 93% 2.8 mph SSW4.5 kmh SSW 16.5 mph26.6 kmh 30.14 in1020.7 mb 0.07 in1.8 mm 0.12 in3.0 mm 0.30 in7.6 mm
02:14 PM 42.6°F5.9°C 40.7°F4.8°C 93% 4.1 mph S6.6 kmh S 16.5 mph26.6 kmh 30.14 in1020.7 mb 0.07 in1.8 mm 0.00 in0.0 mm 0.30 in7.6 mm
02:19 PM 42.7°F5.9°C 40.8°F4.9°C 93% 4.1 mph SE6.6 kmh SE 16.5 mph26.6 kmh 30.13 in1020.3 mb 0.07 in1.8 mm 0.00 in0.0 mm 0.30 in7.6 mm
02:24 PM 42.7°F5.9°C 40.8°F4.9°C 93% 6.7 mph S10.8 kmh S 16.5 mph26.6 kmh 30.13 in1020.3 mb 0.06 in1.5 mm 0.00 in0.0 mm 0.30 in7.6 mm
02:29 PM 42.8°F6.0°C 40.9°F4.9°C 93% 7.5 mph SSE12.1 kmh SSE 18.0 mph29.0 kmh 30.14 in1020.7 mb 0.07 in1.8 mm 0.12 in3.0 mm 0.31 in7.9 mm
02:34 PM 42.7°F5.9°C 40.8°F4.9°C 93% 4.0 mph S6.4 kmh S 19.5 mph31.4 kmh 30.13 in1020.3 mb 0.06 in1.5 mm 0.00 in0.0 mm 0.31 in7.9 mm
02:39 PM 42.7°F5.9°C 40.8°F4.9°C 93% 7.0 mph S11.3 kmh S 19.5 mph31.4 kmh 30.12 in1020.0 mb 0.07 in1.8 mm 0.12 in3.0 mm 0.32 in8.1 mm
02:44 PM 42.7°F5.9°C 40.8°F4.9°C 93% 5.0 mph SSW8.0 kmh SSW 19.5 mph31.4 kmh 30.11 in1019.6 mb 0.07 in1.8 mm 0.00 in0.0 mm 0.33 in8.4 mm
02:49 PM 42.8°F6.0°C 40.9°F4.9°C 93% 3.8 mph SSE6.1 kmh SSE 16.5 mph26.6 kmh 30.10 in1019.3 mb 0.07 in1.8 mm 0.00 in0.0 mm 0.34 in8.6 mm
02:54 PM 42.8°F6.0°C 40.9°F4.9°C 93% 5.4 mph S8.7 kmh S 16.5 mph26.6 kmh 30.10 in1019.3 mb 0.08 in2.0 mm 0.12 in3.0 mm 0.35 in8.9 mm
02:59 PM 42.9°F6.1°C 41.2°F5.1°C 94% 4.9 mph S7.9 kmh S 18.0 mph29.0 kmh 30.10 in1019.3 mb 0.07 in1.8 mm 0.00 in0.0 mm 0.35 in8.9 mm
03:04 PM 43.0°F6.1°C 41.1°F5.1°C 93% 4.3 mph S6.9 kmh S 19.5 mph31.4 kmh 30.10 in1019.3 mb 0.08 in2.0 mm 0.01 in0.3 mm 0.36 in9.1 mm
03:09 PM 43.1°F6.2°C 41.2°F5.1°C 93% 6.9 mph S11.1 kmh S 19.5 mph31.4 kmh 30.10 in1019.3 mb 0.07 in1.8 mm 0.00 in0.0 mm 0.36 in9.1 mm
03:14 PM 43.1°F6.2°C 41.2°F5.1°C 93% 5.5 mph SSW8.9 kmh SSW 19.5 mph31.4 kmh 30.10 in1019.3 mb 0.07 in1.8 mm 0.00 in0.0 mm 0.36 in9.1 mm
03:19 PM 43.1°F6.2°C 41.2°F5.1°C 93% 2.8 mph S4.5 kmh S 19.5 mph31.4 kmh 30.10 in1019.3 mb 0.07 in1.8 mm 0.00 in0.0 mm 0.36 in9.1 mm
03:24 PM 43.1°F6.2°C 41.2°F5.1°C 93% 7.1 mph S11.4 kmh S 15.0 mph24.1 kmh 30.09 in1019.0 mb 0.07 in1.8 mm 0.00 in0.0 mm 0.36 in9.1 mm
03:29 PM 43.1°F6.2°C 41.2°F5.1°C 93% 5.5 mph S8.9 kmh S 15.0 mph24.1 kmh 30.09 in1019.0 mb 0.05 in1.3 mm 0.00 in0.0 mm 0.36 in9.1 mm
03:34 PM 43.2°F6.2°C 41.3°F5.2°C 93% 4.8 mph S7.7 kmh S 15.0 mph24.1 kmh 30.08 in1018.6 mb 0.05 in1.3 mm 0.00 in0.0 mm 0.36 in9.1 mm
03:39 PM 43.2°F6.2°C 41.3°F5.2°C 93% 6.8 mph S10.9 kmh S 18.0 mph29.0 kmh 30.08 in1018.6 mb 0.04 in1.0 mm 0.00 in0.0 mm 0.36 in9.1 mm
03:44 PM 43.2°F6.2°C 41.3°F5.2°C 93% 4.5 mph S7.2 kmh S 18.0 mph29.0 kmh 30.09 in1019.0 mb 0.03 in0.8 mm 0.00 in0.0 mm 0.36 in9.1 mm
03:49 PM 43.2°F6.2°C 41.3°F5.2°C 93% 8.1 mph SSW13.0 kmh SSW 22.5 mph36.2 kmh 30.09 in1019.0 mb 0.02 in0.5 mm 0.00 in0.0 mm 0.36 in9.1 mm
03:54 PM 43.2°F6.2°C 41.3°F5.2°C 93% 9.5 mph S15.3 kmh S 22.5 mph36.2 kmh 30.08 in1018.6 mb 0.01 in0.3 mm 0.00 in0.0 mm 0.36 in9.1 mm
03:59 PM 43.3°F6.3°C 41.4°F5.2°C 93% 5.6 mph S9.0 kmh S 22.5 mph36.2 kmh 30.08 in1018.6 mb 0.01 in0.3 mm 0.00 in0.0 mm 0.36 in9.1 mm
04:04 PM 43.3°F6.3°C 41.4°F5.2°C 93% 8.1 mph S13.0 kmh S 22.5 mph36.2 kmh 30.09 in1019.0 mb 0.00 in0.0 mm 0.00 in0.0 mm 0.36 in9.1 mm
04:09 PM 43.3°F6.3°C 41.4°F5.2°C 93% 5.2 mph S8.4 kmh S 21.0 mph33.8 kmh 30.09 in1019.0 mb 0.01 in0.3 mm 0.12 in3.0 mm 0.37 in9.4 mm
04:14 PM 43.3°F6.3°C 41.4°F5.2°C 93% 6.3 mph S10.1 kmh S 21.0 mph33.8 kmh 30.09 in1019.0 mb 0.01 in0.3 mm 0.00 in0.0 mm 0.37 in9.4 mm
04:19 PM 43.3°F6.3°C 41.4°F5.2°C 93% 5.4 mph S8.7 kmh S 21.0 mph33.8 kmh 30.09 in1019.0 mb 0.01 in0.3 mm 0.00 in0.0 mm 0.37 in9.4 mm
04:24 PM 43.3°F6.3°C 41.4°F5.2°C 93% 2.8 mph SSE4.5 kmh SSE 21.0 mph33.8 kmh 30.09 in1019.0 mb 0.01 in0.3 mm 0.00 in0.0 mm 0.37 in9.4 mm
04:29 PM 43.4°F6.3°C 41.7°F5.4°C 94% 2.2 mph WNW3.5 kmh WNW 21.0 mph33.8 kmh 30.11 in1019.6 mb 0.01 in0.3 mm 0.00 in0.0 mm 0.37 in9.4 mm
04:34 PM 43.4°F6.3°C 41.7°F5.4°C 94% 1.7 mph SW2.7 kmh SW 10.5 mph16.9 kmh 30.12 in1020.0 mb 0.04 in1.0 mm 0.36 in9.1 mm 0.41 in10.4 mm
04:39 PM 43.4°F6.3°C 41.7°F5.4°C 94% 1.8 mph WSW2.9 kmh WSW 9.0 mph14.5 kmh 30.11 in1019.6 mb 0.07 in1.8 mm 0.36 in9.1 mm 0.43 in10.9 mm
04:44 PM 43.4°F6.3°C 41.7°F5.4°C 94% 1.3 mph SE2.1 kmh SE 9.0 mph14.5 kmh 30.11 in1019.6 mb 0.08 in2.0 mm 0.12 in3.0 mm 0.44 in11.2 mm
04:49 PM 43.4°F6.3°C 41.7°F5.4°C 94% 1.9 mph SSW3.1 kmh SSW 4.5 mph7.2 kmh 30.11 in1019.6 mb 0.09 in2.3 mm 0.12 in3.0 mm 0.45 in11.4 mm
04:54 PM 43.4°F6.3°C 41.7°F5.4°C 94% 2.8 mph S4.5 kmh S 6.0 mph9.7 kmh 30.10 in1019.3 mb 0.09 in2.3 mm 0.00 in0.0 mm 0.45 in11.4 mm
04:59 PM 43.4°F6.3°C 42.0°F5.6°C 95% 3.1 mph S5.0 kmh S 6.0 mph9.7 kmh 30.10 in1019.3 mb 0.10 in2.5 mm 0.12 in3.0 mm 0.46 in11.7 mm
05:04 PM 43.4°F6.3°C 41.7°F5.4°C 94% 2.6 mph S4.2 kmh S 7.5 mph12.1 kmh 30.09 in1019.0 mb 0.10 in2.5 mm 0.00 in0.0 mm 0.46 in11.7 mm
05:09 PM 43.4°F6.3°C 42.0°F5.6°C 95% 3.3 mph S5.3 kmh S 10.5 mph16.9 kmh 30.09 in1019.0 mb 0.09 in2.3 mm 0.00 in0.0 mm 0.46 in11.7 mm
05:14 PM 43.4°F6.3°C 42.0°F5.6°C 95% 3.8 mph S6.1 kmh S 10.5 mph16.9 kmh 30.09 in1019.0 mb 0.09 in2.3 mm 0.00 in0.0 mm 0.46 in11.7 mm
05:19 PM 43.5°F6.4°C 41.8°F5.4°C 94% 2.8 mph S4.5 kmh S 10.5 mph16.9 kmh 30.09 in1019.0 mb 0.09 in2.3 mm 0.00 in0.0 mm 0.46 in11.7 mm
05:24 PM 43.5°F6.4°C 41.8°F5.4°C 94% 1.4 mph SSE2.3 kmh SSE 10.5 mph16.9 kmh 30.09 in1019.0 mb 0.09 in2.3 mm 0.00 in0.0 mm 0.46 in11.7 mm
05:29 PM 43.5°F6.4°C 41.8°F5.4°C 94% 2.8 mph S4.5 kmh S 9.0 mph14.5 kmh 30.09 in1019.0 mb 0.09 in2.3 mm 0.00 in0.0 mm 0.46 in11.7 mm
05:35 PM 43.6°F6.4°C 41.9°F5.5°C 94% 3.3 mph SE5.3 kmh SE 7.5 mph12.1 kmh 30.09 in1019.0 mb 0.06 in1.5 mm 0.00 in0.0 mm 0.46 in11.7 mm
05:40 PM 43.6°F6.4°C 41.9°F5.5°C 94% 1.4 mph SSE2.3 kmh SSE 7.5 mph12.1 kmh 30.09 in1019.0 mb 0.03 in0.8 mm 0.00 in0.0 mm 0.46 in11.7 mm
05:45 PM 43.6°F6.4°C 42.0°F5.6°C 94% 1.7 mph S2.7 kmh S 7.5 mph12.1 kmh 30.08 in1018.6 mb 0.02 in0.5 mm 0.00 in0.0 mm 0.46 in11.7 mm
05:50 PM 43.7°F6.5°C 42.4°F5.8°C 95% 2.8 mph S4.5 kmh S 9.0 mph14.5 kmh 30.08 in1018.6 mb 0.01 in0.3 mm 0.00 in0.0 mm 0.46 in11.7 mm
05:55 PM 43.7°F6.5°C 42.3°F5.7°C 95% 1.7 mph SSE2.7 kmh SSE 9.0 mph14.5 kmh 30.08 in1018.6 mb 0.01 in0.3 mm 0.00 in0.0 mm 0.46 in11.7 mm
06:00 PM 43.8°F6.6°C 42.4°F5.8°C 95% 1.3 mph S2.1 kmh S 9.0 mph14.5 kmh 30.08 in1018.6 mb 0.00 in0.0 mm 0.00 in0.0 mm 0.46 in11.7 mm
06:05 PM 43.9°F6.6°C 42.5°F5.8°C 95% 3.2 mph S5.1 kmh S 9.0 mph14.5 kmh 30.08 in1018.6 mb 0.00 in0.0 mm 0.00 in0.0 mm 0.46 in11.7 mm
06:10 PM 43.9°F6.6°C 42.5°F5.8°C 95% 1.8 mph SSW2.9 kmh SSW 7.5 mph12.1 kmh 30.08 in1018.6 mb 0.00 in0.0 mm 0.00 in0.0 mm 0.46 in11.7 mm
06:15 PM 44.0°F6.7°C 42.7°F5.9°C 95% 2.3 mph SSE3.7 kmh SSE 7.5 mph12.1 kmh 30.08 in1018.6 mb 0.00 in0.0 mm 0.00 in0.0 mm 0.46 in11.7 mm
06:20 PM 44.0°F6.7°C 42.7°F5.9°C 95% 1.3 mph SSW2.1 kmh SSW 7.5 mph12.1 kmh 30.08 in1018.6 mb 0.00 in0.0 mm 0.00 in0.0 mm 0.46 in11.7 mm
06:25 PM 44.1°F6.7°C 42.8°F6.0°C 95% 2.6 mph S4.2 kmh S 6.0 mph9.7 kmh 30.08 in1018.6 mb 0.00 in0.0 mm 0.00 in0.0 mm 0.46 in11.7 mm
06:30 PM 44.1°F6.7°C 42.8°F6.0°C 95% 2.8 mph SSE4.5 kmh SSE 9.0 mph14.5 kmh 30.08 in1018.6 mb 0.00 in0.0 mm 0.00 in0.0 mm 0.46 in11.7 mm
06:35 PM 44.2°F6.8°C 42.9°F6.1°C 95% 1.3 mph S2.1 kmh S 9.0 mph14.5 kmh 30.08 in1018.6 mb 0.00 in0.0 mm 0.00 in0.0 mm 0.46 in11.7 mm
06:40 PM 44.2°F6.8°C 42.8°F6.0°C 95% 2.1 mph SE3.4 kmh SE 9.0 mph14.5 kmh 30.08 in1018.6 mb 0.00 in0.0 mm 0.00 in0.0 mm 0.46 in11.7 mm
06:45 PM 44.2°F6.8°C 42.9°F6.1°C 95% Calm Calm 9.0 mph14.5 kmh 30.08 in1018.6 mb 0.00 in0.0 mm 0.00 in0.0 mm 0.46 in11.7 mm
06:50 PM 44.2°F6.8°C 42.8°F6.0°C 95% 1.3 mph E2.1 kmh E 7.5 mph12.1 kmh 30.08 in1018.6 mb 0.00 in0.0 mm 0.00 in0.0 mm 0.46 in11.7 mm
06:55 PM 44.3°F6.8°C 42.9°F6.1°C 95% 1.3 mph SE2.1 kmh SE 6.0 mph9.7 kmh 30.09 in1019.0 mb 0.00 in0.0 mm 0.00 in0.0 mm 0.46 in11.7 mm
07:00 PM 44.3°F6.8°C 42.9°F6.1°C 95% Calm Calm 6.0 mph9.7 kmh 30.09 in1019.0 mb 0.00 in0.0 mm 0.00 in0.0 mm 0.46 in11.7 mm
07:05 PM 44.3°F6.8°C 43.0°F6.1°C 95% 1.3 mph ESE2.1 kmh ESE 4.5 mph7.2 kmh 30.08 in1018.6 mb 0.00 in0.0 mm 0.00 in0.0 mm 0.46 in11.7 mm
07:10 PM 44.3°F6.8°C 43.0°F6.1°C 95% 1.3 mph S2.1 kmh S 4.5 mph7.2 kmh 30.09 in1019.0 mb 0.00 in0.0 mm 0.00 in0.0 mm 0.46 in11.7 mm
07:15 PM 44.3°F6.8°C 43.0°F6.1°C 95% Calm Calm 4.5 mph7.2 kmh 30.09 in1019.0 mb 0.00 in0.0 mm 0.00 in0.0 mm 0.46 in11.7 mm
07:20 PM 44.3°F6.8°C 43.0°F6.1°C 95% Calm Calm 4.5 mph7.2 kmh 30.09 in1019.0 mb 0.00 in0.0 mm 0.00 in0.0 mm 0.46 in11.7 mm
07:25 PM 44.3°F6.8°C 42.9°F6.1°C 95% Calm Calm 1.5 mph2.4 kmh 30.09 in1019.0 mb 0.00 in0.0 mm 0.00 in0.0 mm 0.46 in11.7 mm
07:30 PM 44.3°F6.8°C 42.9°F6.1°C 95% Calm Calm 1.5 mph2.4 kmh 30.09 in1019.0 mb 0.00 in0.0 mm 0.00 in0.0 mm 0.46 in11.7 mm
07:35 PM 44.3°F6.8°C 42.9°F6.1°C 95% Calm Calm 1.5 mph2.4 kmh 30.09 in1019.0 mb 0.00 in0.0 mm 0.00 in0.0 mm 0.46 in11.7 mm
07:40 PM 44.4°F6.9°C 43.0°F6.1°C 95% 1.3 mph ESE2.1 kmh ESE 1.5 mph2.4 kmh 30.08 in1018.6 mb 0.00 in0.0 mm 0.00 in0.0 mm 0.46 in11.7 mm
07:45 PM 44.4°F6.9°C 43.0°F6.1°C 95% Calm Calm 1.5 mph2.4 kmh 30.09 in1019.0 mb 0.00 in0.0 mm 0.00 in0.0 mm 0.46 in11.7 mm
07:50 PM 44.4°F6.9°C 43.1°F6.2°C 95% 2.1 mph SE3.4 kmh SE 6.0 mph9.7 kmh 30.09 in1019.0 mb 0.00 in0.0 mm 0.00 in0.0 mm 0.46 in11.7 mm
07:55 PM 44.5°F6.9°C 43.2°F6.2°C 95% 1.3 mph ESE2.1 kmh ESE 6.0 mph9.7 kmh 30.09 in1019.0 mb 0.00 in0.0 mm 0.00 in0.0 mm 0.46 in11.7 mm
08:00 PM 44.5°F6.9°C 43.2°F6.2°C 95% 1.3 mph NNW2.1 kmh NNW 6.0 mph9.7 kmh 30.09 in1019.0 mb 0.00 in0.0 mm 0.00 in0.0 mm 0.46 in11.7 mm
08:05 PM 44.5°F6.9°C 43.1°F6.2°C 95% Calm Calm 6.0 mph9.7 kmh 30.10 in1019.3 mb 0.00 in0.0 mm 0.00 in0.0 mm 0.46 in11.7 mm
08:10 PM 44.6°F7.0°C 43.2°F6.2°C 95% 1.3 mph NW2.1 kmh NW 1.5 mph2.4 kmh 30.09 in1019.0 mb 0.00 in0.0 mm 0.00 in0.0 mm 0.46 in11.7 mm
08:15 PM 44.6°F7.0°C 43.2°F6.2°C 95% Calm Calm 1.5 mph2.4 kmh 30.09 in1019.0 mb 0.00 in0.0 mm 0.00 in0.0 mm 0.46 in11.7 mm
08:20 PM 44.6°F7.0°C 43.2°F6.2°C 95% 1.3 mph NE2.1 kmh NE 1.5 mph2.4 kmh 30.09 in1019.0 mb 0.00 in0.0 mm 0.00 in0.0 mm 0.46 in11.7 mm
08:25 PM 44.6°F7.0°C 43.2°F6.2°C 95% Calm Calm 1.5 mph2.4 kmh 30.10 in1019.3 mb 0.00 in0.0 mm 0.00 in0.0 mm 0.46 in11.7 mm
08:30 PM 44.7°F7.1°C 43.3°F6.3°C 95% Calm Calm 1.5 mph2.4 kmh 30.09 in1019.0 mb 0.00 in0.0 mm 0.00 in0.0 mm 0.46 in11.7 mm
08:35 PM 44.7°F7.1°C 43.4°F6.3°C 95% 1.3 mph SW2.1 kmh SW 1.5 mph2.4 kmh 30.09 in1019.0 mb 0.00 in0.0 mm 0.00 in0.0 mm 0.46 in11.7 mm
08:40 PM 44.7°F7.1°C 43.6°F6.4°C 96% 1.3 mph SSE2.1 kmh SSE 3.0 mph4.8 kmh 30.09 in1019.0 mb 0.00 in0.0 mm 0.00 in0.0 mm 0.46 in11.7 mm
08:45 PM 44.8°F7.1°C 43.7°F6.5°C 96% Calm Calm 3.0 mph4.8 kmh 30.09 in1019.0 mb 0.00 in0.0 mm 0.00 in0.0 mm 0.46 in11.7 mm
08:50 PM 44.8°F7.1°C 43.7°F6.5°C 96% 1.3 mph SSW2.1 kmh SSW 4.5 mph7.2 kmh 30.09 in1019.0 mb 0.00 in0.0 mm 0.00 in0.0 mm 0.46 in11.7 mm
08:55 PM 44.9°F7.2°C 43.8°F6.6°C 96% Calm Calm 4.5 mph7.2 kmh 30.09 in1019.0 mb 0.00 in0.0 mm 0.00 in0.0 mm 0.46 in11.7 mm
09:00 PM 45.0°F7.2°C 43.9°F6.6°C 96% Calm Calm 4.5 mph7.2 kmh 30.09 in1019.0 mb 0.00 in0.0 mm 0.00 in0.0 mm 0.46 in11.7 mm
09:05 PM 45.0°F7.2°C 43.9°F6.6°C 96% Calm Calm 4.5 mph7.2 kmh 30.08 in1018.6 mb 0.00 in0.0 mm 0.00 in0.0 mm 0.46 in11.7 mm
09:10 PM 45.0°F7.2°C 43.9°F6.6°C 96% 1.6 mph S2.6 kmh S 4.5 mph7.2 kmh 30.08 in1018.6 mb 0.00 in0.0 mm 0.00 in0.0 mm 0.46 in11.7 mm
09:15 PM 45.1°F7.3°C 44.0°F6.7°C 96% 1.7 mph S2.7 kmh S 4.5 mph7.2 kmh 30.08 in1018.6 mb 0.00 in0.0 mm 0.00 in0.0 mm 0.46 in11.7 mm
09:20 PM 45.2°F7.3°C 44.1°F6.7°C 96% Calm Calm 4.5 mph7.2 kmh 30.08 in1018.6 mb 0.00 in0.0 mm 0.00 in0.0 mm 0.46 in11.7 mm
09:25 PM 45.2°F7.3°C 44.1°F6.7°C 96% Calm Calm 4.5 mph7.2 kmh 30.08 in1018.6 mb 0.00 in0.0 mm 0.00 in0.0 mm 0.46 in11.7 mm
09:30 PM 45.2°F7.3°C 44.1°F6.7°C 96% 1.3 mph SE2.1 kmh SE 4.5 mph7.2 kmh 30.08 in1018.6 mb 0.00 in0.0 mm 0.00 in0.0 mm 0.46 in11.7 mm
09:35 PM 45.3°F7.4°C 44.2°F6.8°C 96% Calm Calm 3.0 mph4.8 kmh 30.08 in1018.6 mb 0.00 in0.0 mm 0.00 in0.0 mm 0.46 in11.7 mm
09:40 PM 45.3°F7.4°C 44.2°F6.8°C 96% Calm Calm 1.5 mph2.4 kmh 30.08 in1018.6 mb 0.00 in0.0 mm 0.00 in0.0 mm 0.46 in11.7 mm
09:45 PM 45.3°F7.4°C 44.2°F6.8°C 96% 1.3 mph S2.1 kmh S 1.5 mph2.4 kmh 30.08 in1018.6 mb 0.00 in0.0 mm 0.00 in0.0 mm 0.46 in11.7 mm
09:50 PM 45.4°F7.4°C 44.3°F6.8°C 96% Calm Calm 1.5 mph2.4 kmh 30.08 in1018.6 mb 0.00 in0.0 mm 0.00 in0.0 mm 0.46 in11.7 mm
09:55 PM 45.4°F7.4°C 44.3°F6.8°C 96% Calm Calm 1.5 mph2.4 kmh 30.08 in1018.6 mb 0.00 in0.0 mm 0.00 in0.0 mm 0.46 in11.7 mm
10:00 PM 45.5°F7.5°C 44.4°F6.9°C 96% Calm Calm 1.5 mph2.4 kmh 30.08 in1018.6 mb 0.00 in0.0 mm 0.00 in0.0 mm 0.46 in11.7 mm
10:05 PM 45.4°F7.4°C 44.3°F6.8°C 96% Calm Calm 1.5 mph2.4 kmh 30.08 in1018.6 mb 0.00 in0.0 mm 0.00 in0.0 mm 0.46 in11.7 mm
10:10 PM 45.5°F7.5°C 44.4°F6.9°C 96% Calm Calm 1.5 mph2.4 kmh 30.08 in1018.6 mb 0.00 in0.0 mm 0.00 in0.0 mm 0.46 in11.7 mm
10:15 PM 45.6°F7.6°C 44.5°F6.9°C 96% Calm Calm 1.5 mph2.4 kmh 30.08 in1018.6 mb 0.00 in0.0 mm 0.00 in0.0 mm 0.46 in11.7 mm
10:20 PM 45.6°F7.6°C 44.5°F6.9°C 96% Calm Calm -- 30.07 in1018.3 mb 0.00 in0.0 mm 0.00 in0.0 mm 0.46 in11.7 mm
10:25 PM 45.6°F7.6°C 44.5°F6.9°C 96% 1.3 mph ENE2.1 kmh ENE 1.5 mph2.4 kmh 30.07 in1018.3 mb 0.00 in0.0 mm 0.00 in0.0 mm 0.46 in11.7 mm
10:31 PM 45.7°F7.6°C 44.6°F7.0°C 96% Calm Calm 1.5 mph2.4 kmh 30.07 in1018.3 mb 0.00 in0.0 mm 0.00 in0.0 mm 0.46 in11.7 mm
10:36 PM 45.7°F7.6°C 44.6°F7.0°C 96% 1.3 mph SSE2.1 kmh SSE 3.0 mph4.8 kmh 30.07 in1018.3 mb 0.00 in0.0 mm 0.00 in0.0 mm 0.46 in11.7 mm
10:41 PM 45.8°F7.7°C 44.7°F7.1°C 96% Calm Calm 3.0 mph4.8 kmh 30.07 in1018.3 mb 0.00 in0.0 mm 0.00 in0.0 mm 0.46 in11.7 mm
10:46 PM 45.8°F7.7°C 44.7°F7.1°C 96% 2.1 mph SSE3.4 kmh SSE 4.5 mph7.2 kmh 30.07 in1018.3 mb 0.00 in0.0 mm 0.00 in0.0 mm 0.46 in11.7 mm
10:51 PM 45.9°F7.7°C 44.8°F7.1°C 96% 1.6 mph SE2.6 kmh SE 4.5 mph7.2 kmh 30.06 in1017.9 mb 0.00 in0.0 mm 0.00 in0.0 mm 0.46 in11.7 mm
10:56 PM 45.9°F7.7°C 44.8°F7.1°C 96% Calm Calm 4.5 mph7.2 kmh 30.06 in1017.9 mb 0.00 in0.0 mm 0.00 in0.0 mm 0.46 in11.7 mm
11:01 PM 45.9°F7.7°C 44.8°F7.1°C 96% Calm Calm 4.5 mph7.2 kmh 30.06 in1017.9 mb 0.00 in0.0 mm 0.00 in0.0 mm 0.46 in11.7 mm
11:06 PM 45.9°F7.7°C 44.8°F7.1°C 96% Calm Calm 3.0 mph4.8 kmh 30.06 in1017.9 mb 0.00 in0.0 mm 0.00 in0.0 mm 0.46 in11.7 mm
11:11 PM 45.9°F7.7°C 44.8°F7.1°C 96% Calm Calm 3.0 mph4.8 kmh 30.06 in1017.9 mb 0.00 in0.0 mm 0.00 in0.0 mm 0.46 in11.7 mm
11:16 PM 46.0°F7.8°C 44.9°F7.2°C 96% 1.3 mph W2.1 kmh W 3.0 mph4.8 kmh 30.06 in1017.9 mb 0.00 in0.0 mm 0.00 in0.0 mm 0.46 in11.7 mm
11:21 PM 46.1°F7.8°C 45.0°F7.2°C 96% 1.3 mph W2.1 kmh W 1.5 mph2.4 kmh 30.06 in1017.9 mb 0.00 in0.0 mm 0.00 in0.0 mm 0.46 in11.7 mm
11:26 PM 46.1°F7.8°C 45.0°F7.2°C 96% 1.3 mph SW2.1 kmh SW 1.5 mph2.4 kmh 30.07 in1018.3 mb 0.00 in0.0 mm 0.00 in0.0 mm 0.46 in11.7 mm
11:31 PM 46.2°F7.9°C 45.1°F7.3°C 96% 1.7 mph S2.7 kmh S 3.0 mph4.8 kmh 30.07 in1018.3 mb 0.00 in0.0 mm 0.00 in0.0 mm 0.46 in11.7 mm
11:36 PM 46.3°F7.9°C 45.2°F7.3°C 96% 1.3 mph SW2.1 kmh SW 4.5 mph7.2 kmh 30.07 in1018.3 mb 0.00 in0.0 mm 0.00 in0.0 mm 0.46 in11.7 mm
11:41 PM 46.3°F7.9°C 45.2°F7.3°C 96% 1.3 mph SE2.1 kmh SE 4.5 mph7.2 kmh 30.07 in1018.3 mb 0.00 in0.0 mm 0.00 in0.0 mm 0.46 in11.7 mm
11:46 PM 46.3°F7.9°C 45.2°F7.3°C 96% 1.9 mph S3.1 kmh S 4.5 mph7.2 kmh 30.07 in1018.3 mb 0.00 in0.0 mm 0.00 in0.0 mm 0.46 in11.7 mm
11:51 PM 46.3°F7.9°C 45.2°F7.3°C 96% 1.4 mph WSW2.3 kmh WSW 4.5 mph7.2 kmh 30.07 in1018.3 mb 0.00 in0.0 mm 0.00 in0.0 mm 0.46 in11.7 mm
11:56 PM 46.4°F8.0°C 45.3°F7.4°C 96% Calm Calm 4.5 mph7.2 kmh 30.07 in1018.3 mb 0.00 in0.0 mm 0.00 in0.0 mm 0.46 in11.7 mm